sensor_id;sensor_type;location;lat;lon;timestamp;P1;durP1;ratioP1;P2;durP2;ratioP2
19482;SDS011;9882;51.166;6.992;2023-08-20T00:03:35;10.80;;;4.45;;
19482;SDS011;9882;51.166;6.992;2023-08-20T00:06:07;13.63;;;5.20;;
19482;SDS011;9882;51.166;6.992;2023-08-20T00:08:36;15.43;;;5.13;;
19482;SDS011;9882;51.166;6.992;2023-08-20T00:11:06;10.95;;;4.45;;
19482;SDS011;9882;51.166;6.992;2023-08-20T00:13:35;12.93;;;4.78;;
19482;SDS011;9882;51.166;6.992;2023-08-20T00:16:03;10.63;;;4.47;;
19482;SDS011;9882;51.166;6.992;2023-08-20T00:18:33;12.63;;;5.10;;
19482;SDS011;9882;51.166;6.992;2023-08-20T00:21:04;13.40;;;5.05;;
19482;SDS011;9882;51.166;6.992;2023-08-20T00:23:35;11.95;;;5.03;;
19482;SDS011;9882;51.166;6.992;2023-08-20T00:26:05;11.68;;;4.93;;
19482;SDS011;9882;51.166;6.992;2023-08-20T00:28:38;15.70;;;4.88;;
19482;SDS011;9882;51.166;6.992;2023-08-20T00:31:07;18.25;;;4.57;;
19482;SDS011;9882;51.166;6.992;2023-08-20T00:33:36;10.70;;;4.55;;
19482;SDS011;9882;51.166;6.992;2023-08-20T00:36:05;10.18;;;4.88;;
19482;SDS011;9882;51.166;6.992;2023-08-20T00:38:35;11.88;;;4.70;;
19482;SDS011;9882;51.166;6.992;2023-08-20T00:41:04;15.32;;;5.05;;
19482;SDS011;9882;51.166;6.992;2023-08-20T00:43:32;10.63;;;5.20;;
19482;SDS011;9882;51.166;6.992;2023-08-20T00:46:01;11.43;;;4.95;;
19482;SDS011;9882;51.166;6.992;2023-08-20T00:48:30;11.43;;;4.40;;
19482;SDS011;9882;51.166;6.992;2023-08-20T00:50:59;10.10;;;4.63;;
19482;SDS011;9882;51.166;6.992;2023-08-20T00:53:27;11.60;;;4.65;;
19482;SDS011;9882;51.166;6.992;2023-08-20T00:55:57;10.93;;;4.20;;
19482;SDS011;9882;51.166;6.992;2023-08-20T00:58:27;12.68;;;4.82;;
19482;SDS011;9882;51.166;6.992;2023-08-20T01:00:57;14.27;;;5.13;;
19482;SDS011;9882;51.166;6.992;2023-08-20T01:03:25;13.95;;;5.18;;
19482;SDS011;9882;51.166;6.992;2023-08-20T01:08:43;15.07;;;5.10;;
19482;SDS011;9882;51.166;6.992;2023-08-20T01:11:20;12.65;;;5.18;;
19482;SDS011;9882;51.166;6.992;2023-08-20T01:13:58;11.48;;;4.68;;
19482;SDS011;9882;51.166;6.992;2023-08-20T01:16:28;13.02;;;4.90;;
19482;SDS011;9882;51.166;6.992;2023-08-20T01:18:56;12.43;;;4.68;;
19482;SDS011;9882;51.166;6.992;2023-08-20T01:21:28;9.70;;;4.43;;
19482;SDS011;9882;51.166;6.992;2023-08-20T01:24:16;12.20;;;5.22;;
19482;SDS011;9882;51.166;6.992;2023-08-20T01:27:03;16.35;;;5.07;;
19482;SDS011;9882;51.166;6.992;2023-08-20T01:29:44;12.65;;;4.75;;
19482;SDS011;9882;51.166;6.992;2023-08-20T01:32:13;12.88;;;4.93;;
19482;SDS011;9882;51.166;6.992;2023-08-20T01:34:43;11.80;;;4.65;;
19482;SDS011;9882;51.166;6.992;2023-08-20T01:37:12;13.88;;;4.47;;
19482;SDS011;9882;51.166;6.992;2023-08-20T01:39:42;11.70;;;4.35;;
19482;SDS011;9882;51.166;6.992;2023-08-20T01:42:10;10.73;;;4.68;;
19482;SDS011;9882;51.166;6.992;2023-08-20T01:44:39;13.57;;;4.72;;
19482;SDS011;9882;51.166;6.992;2023-08-20T01:47:09;11.70;;;4.65;;
19482;SDS011;9882;51.166;6.992;2023-08-20T01:49:38;12.98;;;5.03;;
19482;SDS011;9882;51.166;6.992;2023-08-20T01:52:08;12.35;;;4.82;;
19482;SDS011;9882;51.166;6.992;2023-08-20T01:54:38;11.43;;;4.90;;
19482;SDS011;9882;51.166;6.992;2023-08-20T01:57:07;11.27;;;4.50;;
19482;SDS011;9882;51.166;6.992;2023-08-20T01:59:40;11.43;;;4.65;;
19482;SDS011;9882;51.166;6.992;2023-08-20T02:04:50;12.90;;;4.65;;
19482;SDS011;9882;51.166;6.992;2023-08-20T02:07:19;10.43;;;4.40;;
19482;SDS011;9882;51.166;6.992;2023-08-20T02:09:48;14.55;;;5.15;;
19482;SDS011;9882;51.166;6.992;2023-08-20T02:12:17;7.32;;;4.10;;
19482;SDS011;9882;51.166;6.992;2023-08-20T02:14:45;11.48;;;5.13;;
19482;SDS011;9882;51.166;6.992;2023-08-20T02:17:14;13.27;;;5.05;;
19482;SDS011;9882;51.166;6.992;2023-08-20T02:19:44;14.13;;;4.72;;
19482;SDS011;9882;51.166;6.992;2023-08-20T02:22:13;10.20;;;5.00;;
19482;SDS011;9882;51.166;6.992;2023-08-20T02:24:42;10.57;;;4.55;;
19482;SDS011;9882;51.166;6.992;2023-08-20T02:27:10;9.85;;;4.72;;
19482;SDS011;9882;51.166;6.992;2023-08-20T02:29:39;15.88;;;4.25;;
19482;SDS011;9882;51.166;6.992;2023-08-20T02:32:08;10.23;;;4.72;;
19482;SDS011;9882;51.166;6.992;2023-08-20T02:34:36;9.23;;;4.60;;
19482;SDS011;9882;51.166;6.992;2023-08-20T02:37:06;11.40;;;4.82;;
19482;SDS011;9882;51.166;6.992;2023-08-20T02:39:35;12.45;;;5.03;;
19482;SDS011;9882;51.166;6.992;2023-08-20T02:42:04;9.60;;;4.75;;
19482;SDS011;9882;51.166;6.992;2023-08-20T02:44:33;12.10;;;4.70;;
19482;SDS011;9882;51.166;6.992;2023-08-20T02:47:01;8.25;;;4.25;;
19482;SDS011;9882;51.166;6.992;2023-08-20T02:49:30;14.90;;;5.20;;
19482;SDS011;9882;51.166;6.992;2023-08-20T02:51:58;12.57;;;4.38;;
19482;SDS011;9882;51.166;6.992;2023-08-20T02:54:28;10.77;;;4.47;;
19482;SDS011;9882;51.166;6.992;2023-08-20T02:56:58;13.82;;;5.13;;
19482;SDS011;9882;51.166;6.992;2023-08-20T02:59:27;12.30;;;4.95;;
19482;SDS011;9882;51.166;6.992;2023-08-20T03:01:56;10.43;;;4.63;;
19482;SDS011;9882;51.166;6.992;2023-08-20T03:04:24;11.57;;;5.00;;
19482;SDS011;9882;51.166;6.992;2023-08-20T03:06:53;14.75;;;4.97;;
19482;SDS011;9882;51.166;6.992;2023-08-20T03:09:22;16.05;;;5.10;;
19482;SDS011;9882;51.166;6.992;2023-08-20T03:11:51;13.75;;;5.10;;
19482;SDS011;9882;51.166;6.992;2023-08-20T03:14:20;12.73;;;4.53;;
19482;SDS011;9882;51.166;6.992;2023-08-20T03:16:49;10.52;;;4.55;;
19482;SDS011;9882;51.166;6.992;2023-08-20T03:19:18;10.82;;;4.75;;
19482;SDS011;9882;51.166;6.992;2023-08-20T03:21:46;12.15;;;4.97;;
19482;SDS011;9882;51.166;6.992;2023-08-20T03:24:15;11.05;;;4.57;;
19482;SDS011;9882;51.166;6.992;2023-08-20T03:26:43;11.38;;;4.78;;
19482;SDS011;9882;51.166;6.992;2023-08-20T03:29:14;9.98;;;4.53;;
19482;SDS011;9882;51.166;6.992;2023-08-20T03:31:43;12.70;;;5.38;;
19482;SDS011;9882;51.166;6.992;2023-08-20T03:34:13;11.52;;;4.93;;
19482;SDS011;9882;51.166;6.992;2023-08-20T03:36:43;15.52;;;5.07;;
19482;SDS011;9882;51.166;6.992;2023-08-20T03:39:11;18.17;;;5.10;;
19482;SDS011;9882;51.166;6.992;2023-08-20T03:41:41;12.23;;;4.70;;
19482;SDS011;9882;51.166;6.992;2023-08-20T03:44:09;10.98;;;4.75;;
19482;SDS011;9882;51.166;6.992;2023-08-20T03:46:39;11.70;;;5.35;;
19482;SDS011;9882;51.166;6.992;2023-08-20T03:49:08;10.73;;;4.30;;
19482;SDS011;9882;51.166;6.992;2023-08-20T03:51:38;17.05;;;5.97;;
19482;SDS011;9882;51.166;6.992;2023-08-20T03:54:07;14.02;;;5.80;;
19482;SDS011;9882;51.166;6.992;2023-08-20T03:56:38;12.07;;;5.40;;
19482;SDS011;9882;51.166;6.992;2023-08-20T03:59:07;11.90;;;5.60;;
19482;SDS011;9882;51.166;6.992;2023-08-20T04:01:39;12.27;;;4.93;;
19482;SDS011;9882;51.166;6.992;2023-08-20T04:04:09;12.63;;;5.07;;
19482;SDS011;9882;51.166;6.992;2023-08-20T04:06:38;9.98;;;4.78;;
19482;SDS011;9882;51.166;6.992;2023-08-20T04:09:07;10.20;;;4.43;;
19482;SDS011;9882;51.166;6.992;2023-08-20T04:11:36;14.35;;;5.15;;
19482;SDS011;9882;51.166;6.992;2023-08-20T04:14:04;10.77;;;4.80;;
19482;SDS011;9882;51.166;6.992;2023-08-20T04:16:33;12.68;;;5.07;;
19482;SDS011;9882;51.166;6.992;2023-08-20T04:19:03;12.18;;;4.75;;
19482;SDS011;9882;51.166;6.992;2023-08-20T04:21:32;9.30;;;4.00;;
19482;SDS011;9882;51.166;6.992;2023-08-20T04:24:00;15.70;;;4.80;;
19482;SDS011;9882;51.166;6.992;2023-08-20T04:26:29;10.65;;;4.40;;
19482;SDS011;9882;51.166;6.992;2023-08-20T04:28:58;11.55;;;4.35;;
19482;SDS011;9882;51.166;6.992;2023-08-20T04:31:26;13.32;;;4.93;;
19482;SDS011;9882;51.166;6.992;2023-08-20T04:34:00;10.98;;;5.18;;
19482;SDS011;9882;51.166;6.992;2023-08-20T04:36:39;11.85;;;5.53;;
19482;SDS011;9882;51.166;6.992;2023-08-20T04:39:07;9.27;;;5.00;;
19482;SDS011;9882;51.166;6.992;2023-08-20T04:41:39;11.80;;;5.28;;
19482;SDS011;9882;51.166;6.992;2023-08-20T04:44:12;11.05;;;5.28;;
19482;SDS011;9882;51.166;6.992;2023-08-20T04:46:42;9.70;;;4.88;;
19482;SDS011;9882;51.166;6.992;2023-08-20T04:49:16;11.02;;;5.25;;
19482;SDS011;9882;51.166;6.992;2023-08-20T04:51:44;11.35;;;5.13;;
19482;SDS011;9882;51.166;6.992;2023-08-20T04:54:13;10.02;;;5.00;;
19482;SDS011;9882;51.166;6.992;2023-08-20T04:56:42;12.57;;;5.00;;
19482;SDS011;9882;51.166;6.992;2023-08-20T04:59:12;12.32;;;5.10;;
19482;SDS011;9882;51.166;6.992;2023-08-20T05:01:50;15.32;;;5.70;;
19482;SDS011;9882;51.166;6.992;2023-08-20T05:04:34;12.23;;;5.05;;
19482;SDS011;9882;51.166;6.992;2023-08-20T05:07:03;11.90;;;4.97;;
19482;SDS011;9882;51.166;6.992;2023-08-20T05:09:32;14.98;;;5.93;;
19482;SDS011;9882;51.166;6.992;2023-08-20T05:12:01;10.40;;;5.10;;
19482;SDS011;9882;51.166;6.992;2023-08-20T05:14:30;9.05;;;4.70;;
19482;SDS011;9882;51.166;6.992;2023-08-20T05:16:59;11.85;;;5.30;;
19482;SDS011;9882;51.166;6.992;2023-08-20T05:19:28;15.07;;;5.43;;
19482;SDS011;9882;51.166;6.992;2023-08-20T05:21:58;17.33;;;5.47;;
19482;SDS011;9882;51.166;6.992;2023-08-20T05:24:31;10.90;;;5.07;;
19482;SDS011;9882;51.166;6.992;2023-08-20T05:27:05;10.15;;;5.32;;
19482;SDS011;9882;51.166;6.992;2023-08-20T05:29:44;9.43;;;4.75;;
19482;SDS011;9882;51.166;6.992;2023-08-20T05:35:17;9.13;;;4.68;;
19482;SDS011;9882;51.166;6.992;2023-08-20T05:37:50;13.68;;;5.25;;
19482;SDS011;9882;51.166;6.992;2023-08-20T05:40:18;10.80;;;4.78;;
19482;SDS011;9882;51.166;6.992;2023-08-20T05:42:48;13.90;;;5.60;;
19482;SDS011;9882;51.166;6.992;2023-08-20T05:45:18;9.73;;;5.20;;
19482;SDS011;9882;51.166;6.992;2023-08-20T05:47:48;11.50;;;4.70;;
19482;SDS011;9882;51.166;6.992;2023-08-20T05:50:16;12.98;;;5.45;;
19482;SDS011;9882;51.166;6.992;2023-08-20T05:52:45;9.95;;;5.25;;
19482;SDS011;9882;51.166;6.992;2023-08-20T05:55:15;13.35;;;5.15;;
19482;SDS011;9882;51.166;6.992;2023-08-20T05:57:45;11.75;;;5.25;;
19482;SDS011;9882;51.166;6.992;2023-08-20T06:00:14;15.73;;;5.55;;
19482;SDS011;9882;51.166;6.992;2023-08-20T06:02:46;15.82;;;5.43;;
19482;SDS011;9882;51.166;6.992;2023-08-20T06:05:18;15.27;;;5.82;;
19482;SDS011;9882;51.166;6.992;2023-08-20T06:07:47;19.10;;;5.93;;
19482;SDS011;9882;51.166;6.992;2023-08-20T06:10:19;12.10;;;5.35;;
19482;SDS011;9882;51.166;6.992;2023-08-20T06:12:50;9.43;;;4.60;;
19482;SDS011;9882;51.166;6.992;2023-08-20T06:15:19;11.65;;;5.25;;
19482;SDS011;9882;51.166;6.992;2023-08-20T06:17:48;16.30;;;6.45;;
19482;SDS011;9882;51.166;6.992;2023-08-20T06:20:16;22.17;;;7.35;;
19482;SDS011;9882;51.166;6.992;2023-08-20T06:22:46;14.88;;;6.43;;
19482;SDS011;9882;51.166;6.992;2023-08-20T06:25:19;22.70;;;6.75;;
19482;SDS011;9882;51.166;6.992;2023-08-20T06:27:48;16.25;;;6.65;;
19482;SDS011;9882;51.166;6.992;2023-08-20T06:30:16;19.38;;;6.85;;
19482;SDS011;9882;51.166;6.992;2023-08-20T06:32:45;19.85;;;7.28;;
19482;SDS011;9882;51.166;6.992;2023-08-20T06:35:14;12.50;;;6.47;;
19482;SDS011;9882;51.166;6.992;2023-08-20T06:37:43;9.65;;;4.88;;
19482;SDS011;9882;51.166;6.992;2023-08-20T06:40:13;13.30;;;5.18;;
19482;SDS011;9882;51.166;6.992;2023-08-20T06:42:44;18.13;;;7.43;;
19482;SDS011;9882;51.166;6.992;2023-08-20T06:45:12;17.15;;;6.72;;
19482;SDS011;9882;51.166;6.992;2023-08-20T06:47:41;15.63;;;7.18;;
19482;SDS011;9882;51.166;6.992;2023-08-20T06:50:10;16.13;;;7.07;;
19482;SDS011;9882;51.166;6.992;2023-08-20T06:52:41;18.02;;;6.43;;
19482;SDS011;9882;51.166;6.992;2023-08-20T06:55:10;17.00;;;6.78;;
19482;SDS011;9882;51.166;6.992;2023-08-20T06:57:45;15.68;;;6.60;;
19482;SDS011;9882;51.166;6.992;2023-08-20T07:00:14;18.02;;;6.78;;
19482;SDS011;9882;51.166;6.992;2023-08-20T07:02:43;18.45;;;7.47;;
19482;SDS011;9882;51.166;6.992;2023-08-20T07:05:13;16.75;;;7.40;;
19482;SDS011;9882;51.166;6.992;2023-08-20T07:07:44;15.00;;;6.60;;
19482;SDS011;9882;51.166;6.992;2023-08-20T07:10:13;15.15;;;6.28;;
19482;SDS011;9882;51.166;6.992;2023-08-20T07:12:42;17.17;;;6.90;;
19482;SDS011;9882;51.166;6.992;2023-08-20T07:15:14;12.32;;;6.20;;
19482;SDS011;9882;51.166;6.992;2023-08-20T07:17:43;12.55;;;6.07;;
19482;SDS011;9882;51.166;6.992;2023-08-20T07:20:12;16.88;;;6.45;;
19482;SDS011;9882;51.166;6.992;2023-08-20T07:22:41;15.30;;;6.50;;
19482;SDS011;9882;51.166;6.992;2023-08-20T07:25:12;17.77;;;6.93;;
19482;SDS011;9882;51.166;6.992;2023-08-20T07:27:39;10.77;;;5.65;;
19482;SDS011;9882;51.166;6.992;2023-08-20T07:30:10;16.48;;;7.05;;
19482;SDS011;9882;51.166;6.992;2023-08-20T07:32:41;25.88;;;9.48;;
19482;SDS011;9882;51.166;6.992;2023-08-20T07:35:10;26.70;;;8.85;;
19482;SDS011;9882;51.166;6.992;2023-08-20T07:37:38;23.88;;;9.43;;
19482;SDS011;9882;51.166;6.992;2023-08-20T07:40:07;21.77;;;9.18;;
19482;SDS011;9882;51.166;6.992;2023-08-20T07:42:42;20.30;;;8.75;;
19482;SDS011;9882;51.166;6.992;2023-08-20T07:45:13;28.23;;;9.93;;
19482;SDS011;9882;51.166;6.992;2023-08-20T07:47:43;26.15;;;8.68;;
19482;SDS011;9882;51.166;6.992;2023-08-20T07:50:12;18.40;;;7.80;;
19482;SDS011;9882;51.166;6.992;2023-08-20T07:52:42;20.00;;;8.85;;
19482;SDS011;9882;51.166;6.992;2023-08-20T07:55:11;23.77;;;9.13;;
19482;SDS011;9882;51.166;6.992;2023-08-20T07:57:40;24.60;;;8.43;;
19482;SDS011;9882;51.166;6.992;2023-08-20T08:00:09;22.05;;;8.50;;
19482;SDS011;9882;51.166;6.992;2023-08-20T08:02:39;20.48;;;8.45;;
19482;SDS011;9882;51.166;6.992;2023-08-20T08:05:10;20.40;;;8.18;;
19482;SDS011;9882;51.166;6.992;2023-08-20T08:07:44;23.23;;;8.60;;
19482;SDS011;9882;51.166;6.992;2023-08-20T08:10:13;24.33;;;8.00;;
19482;SDS011;9882;51.166;6.992;2023-08-20T08:12:42;20.30;;;7.00;;
19482;SDS011;9882;51.166;6.992;2023-08-20T08:15:13;18.83;;;7.75;;
19482;SDS011;9882;51.166;6.992;2023-08-20T08:17:42;26.13;;;8.00;;
19482;SDS011;9882;51.166;6.992;2023-08-20T08:20:16;17.63;;;7.20;;
19482;SDS011;9882;51.166;6.992;2023-08-20T08:22:45;17.90;;;7.15;;
19482;SDS011;9882;51.166;6.992;2023-08-20T08:25:14;19.35;;;7.13;;
19482;SDS011;9882;51.166;6.992;2023-08-20T08:27:46;17.40;;;6.90;;
19482;SDS011;9882;51.166;6.992;2023-08-20T08:30:24;25.83;;;7.10;;
19482;SDS011;9882;51.166;6.992;2023-08-20T08:32:53;19.60;;;6.88;;
19482;SDS011;9882;51.166;6.992;2023-08-20T08:35:23;20.55;;;6.80;;
19482;SDS011;9882;51.166;6.992;2023-08-20T08:37:52;18.45;;;6.95;;
19482;SDS011;9882;51.166;6.992;2023-08-20T08:40:21;16.30;;;6.60;;
19482;SDS011;9882;51.166;6.992;2023-08-20T08:42:50;17.95;;;6.57;;
19482;SDS011;9882;51.166;6.992;2023-08-20T08:45:20;16.45;;;6.35;;
19482;SDS011;9882;51.166;6.992;2023-08-20T08:47:54;17.30;;;6.63;;
19482;SDS011;9882;51.166;6.992;2023-08-20T08:50:24;14.35;;;5.53;;
19482;SDS011;9882;51.166;6.992;2023-08-20T08:52:53;16.45;;;6.47;;
19482;SDS011;9882;51.166;6.992;2023-08-20T08:55:27;16.17;;;6.28;;
19482;SDS011;9882;51.166;6.992;2023-08-20T08:57:58;13.75;;;5.45;;
19482;SDS011;9882;51.166;6.992;2023-08-20T09:00:27;16.90;;;6.28;;
19482;SDS011;9882;51.166;6.992;2023-08-20T09:02:58;15.95;;;5.63;;
19482;SDS011;9882;51.166;6.992;2023-08-20T09:05:28;14.13;;;5.25;;
19482;SDS011;9882;51.166;6.992;2023-08-20T09:07:57;12.50;;;5.53;;
19482;SDS011;9882;51.166;6.992;2023-08-20T09:10:26;15.25;;;5.85;;
19482;SDS011;9882;51.166;6.992;2023-08-20T09:12:56;16.33;;;5.53;;
19482;SDS011;9882;51.166;6.992;2023-08-20T09:15:31;15.65;;;4.88;;
19482;SDS011;9882;51.166;6.992;2023-08-20T09:18:02;10.57;;;5.05;;
19482;SDS011;9882;51.166;6.992;2023-08-20T09:20:36;6.95;;;4.10;;
19482;SDS011;9882;51.166;6.992;2023-08-20T09:23:10;12.13;;;4.82;;
19482;SDS011;9882;51.166;6.992;2023-08-20T09:25:39;12.68;;;4.70;;
19482;SDS011;9882;51.166;6.992;2023-08-20T09:28:13;9.90;;;4.57;;
19482;SDS011;9882;51.166;6.992;2023-08-20T09:30:54;10.80;;;4.00;;
19482;SDS011;9882;51.166;6.992;2023-08-20T09:33:23;9.85;;;4.20;;
19482;SDS011;9882;51.166;6.992;2023-08-20T09:35:53;10.63;;;4.18;;
19482;SDS011;9882;51.166;6.992;2023-08-20T09:38:23;9.35;;;4.32;;
19482;SDS011;9882;51.166;6.992;2023-08-20T09:40:52;10.35;;;4.15;;
19482;SDS011;9882;51.166;6.992;2023-08-20T09:43:23;12.60;;;4.50;;
19482;SDS011;9882;51.166;6.992;2023-08-20T09:45:55;11.50;;;4.57;;
19482;SDS011;9882;51.166;6.992;2023-08-20T09:48:24;15.25;;;4.85;;
19482;SDS011;9882;51.166;6.992;2023-08-20T09:50:58;10.05;;;4.50;;
19482;SDS011;9882;51.166;6.992;2023-08-20T09:53:30;13.23;;;4.82;;
19482;SDS011;9882;51.166;6.992;2023-08-20T09:56:08;11.93;;;4.82;;
19482;SDS011;9882;51.166;6.992;2023-08-20T09:58:42;14.73;;;5.50;;
19482;SDS011;9882;51.166;6.992;2023-08-20T10:01:12;18.67;;;4.72;;
19482;SDS011;9882;51.166;6.992;2023-08-20T10:03:41;14.00;;;5.15;;
19482;SDS011;9882;51.166;6.992;2023-08-20T10:06:12;9.60;;;4.60;;
19482;SDS011;9882;51.166;6.992;2023-08-20T10:08:41;12.85;;;5.25;;
19482;SDS011;9882;51.166;6.992;2023-08-20T10:11:13;9.27;;;4.20;;
19482;SDS011;9882;51.166;6.992;2023-08-20T10:13:44;10.52;;;4.15;;
19482;SDS011;9882;51.166;6.992;2023-08-20T10:16:17;9.27;;;4.15;;
19482;SDS011;9882;51.166;6.992;2023-08-20T10:18:48;10.07;;;4.53;;
19482;SDS011;9882;51.166;6.992;2023-08-20T10:21:18;8.20;;;4.00;;
19482;SDS011;9882;51.166;6.992;2023-08-20T10:23:51;12.30;;;4.30;;
19482;SDS011;9882;51.166;6.992;2023-08-20T10:26:20;7.85;;;4.00;;
19482;SDS011;9882;51.166;6.992;2023-08-20T10:28:51;7.13;;;3.83;;
19482;SDS011;9882;51.166;6.992;2023-08-20T10:31:45;9.25;;;4.30;;
19482;SDS011;9882;51.166;6.992;2023-08-20T10:34:14;7.50;;;3.58;;
19482;SDS011;9882;51.166;6.992;2023-08-20T10:37:03;9.13;;;4.55;;
19482;SDS011;9882;51.166;6.992;2023-08-20T10:39:37;11.48;;;4.75;;
19482;SDS011;9882;51.166;6.992;2023-08-20T10:42:12;12.57;;;5.32;;
19482;SDS011;9882;51.166;6.992;2023-08-20T10:44:58;12.00;;;4.43;;
19482;SDS011;9882;51.166;6.992;2023-08-20T10:47:41;10.90;;;4.63;;
19482;SDS011;9882;51.166;6.992;2023-08-20T10:50:15;10.15;;;5.00;;
19482;SDS011;9882;51.166;6.992;2023-08-20T10:52:50;9.52;;;4.97;;
19482;SDS011;9882;51.166;6.992;2023-08-20T10:55:23;11.48;;;5.07;;
19482;SDS011;9882;51.166;6.992;2023-08-20T10:57:55;11.90;;;4.95;;
19482;SDS011;9882;51.166;6.992;2023-08-20T11:00:26;16.05;;;6.00;;
19482;SDS011;9882;51.166;6.992;2023-08-20T11:02:57;8.77;;;4.53;;
19482;SDS011;9882;51.166;6.992;2023-08-20T11:05:26;13.55;;;4.63;;
19482;SDS011;9882;51.166;6.992;2023-08-20T11:07:56;10.18;;;4.68;;
19482;SDS011;9882;51.166;6.992;2023-08-20T11:10:26;11.35;;;4.88;;
19482;SDS011;9882;51.166;6.992;2023-08-20T11:12:55;10.85;;;5.22;;
19482;SDS011;9882;51.166;6.992;2023-08-20T11:15:24;7.57;;;4.05;;
19482;SDS011;9882;51.166;6.992;2023-08-20T11:17:53;7.50;;;4.22;;
19482;SDS011;9882;51.166;6.992;2023-08-20T11:20:21;10.05;;;4.82;;
19482;SDS011;9882;51.166;6.992;2023-08-20T11:22:50;11.93;;;4.60;;
19482;SDS011;9882;51.166;6.992;2023-08-20T11:25:20;17.40;;;5.53;;
19482;SDS011;9882;51.166;6.992;2023-08-20T11:27:50;13.88;;;4.63;;
19482;SDS011;9882;51.166;6.992;2023-08-20T11:30:19;13.60;;;5.20;;
19482;SDS011;9882;51.166;6.992;2023-08-20T11:32:47;13.55;;;4.53;;
19482;SDS011;9882;51.166;6.992;2023-08-20T11:35:20;11.00;;;4.68;;
19482;SDS011;9882;51.166;6.992;2023-08-20T11:37:49;8.52;;;4.28;;
19482;SDS011;9882;51.166;6.992;2023-08-20T11:40:19;11.50;;;4.85;;
19482;SDS011;9882;51.166;6.992;2023-08-20T11:42:48;12.35;;;4.68;;
19482;SDS011;9882;51.166;6.992;2023-08-20T11:45:17;9.93;;;4.43;;
19482;SDS011;9882;51.166;6.992;2023-08-20T11:47:48;11.75;;;5.00;;
19482;SDS011;9882;51.166;6.992;2023-08-20T11:50:20;8.25;;;4.53;;
19482;SDS011;9882;51.166;6.992;2023-08-20T11:52:48;14.55;;;5.38;;
19482;SDS011;9882;51.166;6.992;2023-08-20T11:55:22;13.00;;;5.32;;
19482;SDS011;9882;51.166;6.992;2023-08-20T11:57:52;13.98;;;4.68;;
19482;SDS011;9882;51.166;6.992;2023-08-20T12:00:24;9.85;;;4.60;;
19482;SDS011;9882;51.166;6.992;2023-08-20T12:02:54;10.20;;;4.60;;
19482;SDS011;9882;51.166;6.992;2023-08-20T12:05:26;16.48;;;5.75;;
19482;SDS011;9882;51.166;6.992;2023-08-20T12:07:55;14.23;;;5.20;;
19482;SDS011;9882;51.166;6.992;2023-08-20T12:10:26;12.57;;;4.72;;
19482;SDS011;9882;51.166;6.992;2023-08-20T12:12:56;13.68;;;5.32;;
19482;SDS011;9882;51.166;6.992;2023-08-20T12:15:26;11.05;;;5.03;;
19482;SDS011;9882;51.166;6.992;2023-08-20T12:17:55;13.70;;;5.00;;
19482;SDS011;9882;51.166;6.992;2023-08-20T12:20:30;16.98;;;5.57;;
19482;SDS011;9882;51.166;6.992;2023-08-20T12:23:03;10.45;;;5.43;;
19482;SDS011;9882;51.166;6.992;2023-08-20T12:25:37;12.02;;;5.93;;
19482;SDS011;9882;51.166;6.992;2023-08-20T12:28:05;10.80;;;5.28;;
19482;SDS011;9882;51.166;6.992;2023-08-20T12:30:37;10.95;;;4.90;;
19482;SDS011;9882;51.166;6.992;2023-08-20T12:33:06;11.23;;;5.45;;
19482;SDS011;9882;51.166;6.992;2023-08-20T12:35:35;12.65;;;5.30;;
19482;SDS011;9882;51.166;6.992;2023-08-20T12:38:04;11.98;;;4.90;;
19482;SDS011;9882;51.166;6.992;2023-08-20T12:40:34;10.55;;;4.88;;
19482;SDS011;9882;51.166;6.992;2023-08-20T12:43:04;11.18;;;5.03;;
19482;SDS011;9882;51.166;6.992;2023-08-20T12:45:32;15.02;;;5.13;;
19482;SDS011;9882;51.166;6.992;2023-08-20T12:48:01;10.43;;;4.82;;
19482;SDS011;9882;51.166;6.992;2023-08-20T12:50:30;12.02;;;5.32;;
19482;SDS011;9882;51.166;6.992;2023-08-20T12:52:59;10.30;;;4.97;;
19482;SDS011;9882;51.166;6.992;2023-08-20T12:55:27;10.13;;;4.38;;
19482;SDS011;9882;51.166;6.992;2023-08-20T12:57:56;12.40;;;5.10;;
19482;SDS011;9882;51.166;6.992;2023-08-20T13:00:27;10.52;;;5.30;;
19482;SDS011;9882;51.166;6.992;2023-08-20T13:02:57;9.63;;;4.55;;
19482;SDS011;9882;51.166;6.992;2023-08-20T13:05:26;12.45;;;5.22;;
19482;SDS011;9882;51.166;6.992;2023-08-20T13:07:55;10.55;;;5.03;;
19482;SDS011;9882;51.166;6.992;2023-08-20T13:10:24;10.98;;;4.85;;
19482;SDS011;9882;51.166;6.992;2023-08-20T13:12:55;11.35;;;5.32;;
19482;SDS011;9882;51.166;6.992;2023-08-20T13:15:30;15.23;;;5.93;;
19482;SDS011;9882;51.166;6.992;2023-08-20T13:18:00;13.45;;;5.68;;
19482;SDS011;9882;51.166;6.992;2023-08-20T13:20:29;10.02;;;5.00;;
19482;SDS011;9882;51.166;6.992;2023-08-20T13:22:58;10.95;;;4.95;;
19482;SDS011;9882;51.166;6.992;2023-08-20T13:25:26;9.32;;;4.95;;
19482;SDS011;9882;51.166;6.992;2023-08-20T13:27:55;14.13;;;5.15;;
19482;SDS011;9882;51.166;6.992;2023-08-20T13:30:24;11.88;;;5.38;;
19482;SDS011;9882;51.166;6.992;2023-08-20T13:32:54;14.07;;;5.30;;
19482;SDS011;9882;51.166;6.992;2023-08-20T13:35:23;16.65;;;6.07;;
19482;SDS011;9882;51.166;6.992;2023-08-20T13:37:51;11.80;;;5.15;;
19482;SDS011;9882;51.166;6.992;2023-08-20T13:40:21;11.70;;;5.00;;
19482;SDS011;9882;51.166;6.992;2023-08-20T13:42:49;7.63;;;4.55;;
19482;SDS011;9882;51.166;6.992;2023-08-20T13:45:18;10.73;;;5.13;;
19482;SDS011;9882;51.166;6.992;2023-08-20T13:47:47;9.48;;;4.95;;
19482;SDS011;9882;51.166;6.992;2023-08-20T13:50:17;15.07;;;5.80;;
19482;SDS011;9882;51.166;6.992;2023-08-20T13:52:45;13.93;;;5.60;;
19482;SDS011;9882;51.166;6.992;2023-08-20T13:55:14;10.85;;;4.88;;
19482;SDS011;9882;51.166;6.992;2023-08-20T13:57:43;10.10;;;5.15;;
19482;SDS011;9882;51.166;6.992;2023-08-20T14:00:15;15.25;;;5.55;;
19482;SDS011;9882;51.166;6.992;2023-08-20T14:02:46;11.60;;;5.43;;
19482;SDS011;9882;51.166;6.992;2023-08-20T14:05:14;8.50;;;4.43;;
19482;SDS011;9882;51.166;6.992;2023-08-20T14:07:46;10.05;;;4.65;;
19482;SDS011;9882;51.166;6.992;2023-08-20T14:10:14;17.77;;;6.20;;
19482;SDS011;9882;51.166;6.992;2023-08-20T14:12:46;11.48;;;5.78;;
19482;SDS011;9882;51.166;6.992;2023-08-20T14:15:15;11.75;;;5.25;;
19482;SDS011;9882;51.166;6.992;2023-08-20T14:17:44;12.02;;;5.45;;
19482;SDS011;9882;51.166;6.992;2023-08-20T14:20:13;14.00;;;5.88;;
19482;SDS011;9882;51.166;6.992;2023-08-20T14:22:43;12.07;;;5.50;;
19482;SDS011;9882;51.166;6.992;2023-08-20T14:25:11;12.80;;;5.28;;
19482;SDS011;9882;51.166;6.992;2023-08-20T14:27:40;12.15;;;5.30;;
19482;SDS011;9882;51.166;6.992;2023-08-20T14:30:09;13.27;;;5.28;;
19482;SDS011;9882;51.166;6.992;2023-08-20T14:32:38;13.88;;;5.55;;
19482;SDS011;9882;51.166;6.992;2023-08-20T14:35:07;10.70;;;4.63;;
19482;SDS011;9882;51.166;6.992;2023-08-20T14:37:36;14.77;;;5.38;;
19482;SDS011;9882;51.166;6.992;2023-08-20T14:40:07;16.55;;;4.93;;
19482;SDS011;9882;51.166;6.992;2023-08-20T14:42:38;8.95;;;4.65;;
19482;SDS011;9882;51.166;6.992;2023-08-20T14:45:08;11.40;;;4.82;;
19482;SDS011;9882;51.166;6.992;2023-08-20T14:47:37;13.65;;;5.40;;
19482;SDS011;9882;51.166;6.992;2023-08-20T14:50:07;13.85;;;5.20;;
19482;SDS011;9882;51.166;6.992;2023-08-20T14:52:36;11.43;;;4.90;;
19482;SDS011;9882;51.166;6.992;2023-08-20T14:55:05;13.10;;;4.47;;
19482;SDS011;9882;51.166;6.992;2023-08-20T14:57:36;8.88;;;4.20;;
19482;SDS011;9882;51.166;6.992;2023-08-20T15:00:11;10.38;;;4.60;;
19482;SDS011;9882;51.166;6.992;2023-08-20T15:02:41;10.73;;;4.60;;
19482;SDS011;9882;51.166;6.992;2023-08-20T15:05:10;9.90;;;4.90;;
19482;SDS011;9882;51.166;6.992;2023-08-20T15:07:39;10.05;;;4.25;;
19482;SDS011;9882;51.166;6.992;2023-08-20T15:10:10;11.43;;;4.70;;
19482;SDS011;9882;51.166;6.992;2023-08-20T15:12:38;10.55;;;4.93;;
19482;SDS011;9882;51.166;6.992;2023-08-20T15:15:07;11.05;;;4.55;;
19482;SDS011;9882;51.166;6.992;2023-08-20T15:17:36;12.65;;;4.97;;
19482;SDS011;9882;51.166;6.992;2023-08-20T15:20:06;11.88;;;5.00;;